sensor_id;sensor_type;location;lat;lon;timestamp;pressure;altitude;pressure_sealevel;temperature;humidity
44148;BME280;29810;55.848;37.368;2022-07-21T00:00:22;97930.91;;;15.23;89.79
44148;BME280;29810;55.848;37.368;2022-07-21T00:03:25;97929.72;;;15.28;89.58
44148;BME280;29810;55.848;37.368;2022-07-21T00:06:26;97916.81;;;15.13;89.35
44148;BME280;29810;55.848;37.368;2022-07-21T00:09:28;97924.69;;;15.02;89.81
44148;BME280;29810;55.848;37.368;2022-07-21T00:12:29;97901.84;;;14.91;89.92
44148;BME280;29810;55.848;37.368;2022-07-21T00:15:31;97909.41;;;14.96;89.99
44148;BME280;29810;55.848;37.368;2022-07-21T00:18:33;97919.81;;;15.09;89.88
44148;BME280;29810;55.848;37.368;2022-07-21T00:21:35;97926.38;;;15.14;89.79
44148;BME280;29810;55.848;37.368;2022-07-21T00:24:37;97932.34;;;15.16;89.81
44148;BME280;29810;55.848;37.368;2022-07-21T00:27:38;97934.03;;;15.17;89.58
44148;BME280;29810;55.848;37.368;2022-07-21T00:30:40;97939.00;;;15.09;89.77
44148;BME280;29810;55.848;37.368;2022-07-21T00:33:42;97938.66;;;15.14;89.91
44148;BME280;29810;55.848;37.368;2022-07-21T00:36:43;97904.28;;;14.94;89.84
44148;BME280;29810;55.848;37.368;2022-07-21T00:39:45;97912.06;;;15.07;89.95
44148;BME280;29810;55.848;37.368;2022-07-21T00:42:46;97920.87;;;15.06;90.02
44148;BME280;29810;55.848;37.368;2022-07-21T00:45:48;97928.87;;;15.16;90.00
44148;BME280;29810;55.848;37.368;2022-07-21T00:48:49;97925.19;;;15.18;90.04
44148;BME280;29810;55.848;37.368;2022-07-21T00:51:51;97931.53;;;15.27;89.76
44148;BME280;29810;55.848;37.368;2022-07-21T00:54:52;97920.91;;;15.29;89.54
44148;BME280;29810;55.848;37.368;2022-07-21T00:57:54;97927.56;;;15.10;89.83
44148;BME280;29810;55.848;37.368;2022-07-21T01:00:56;97916.44;;;15.06;90.12
44148;BME280;29810;55.848;37.368;2022-07-21T01:03:58;97933.06;;;15.07;90.32
44148;BME280;29810;55.848;37.368;2022-07-21T01:07:03;97920.41;;;15.12;90.46
44148;BME280;29810;55.848;37.368;2022-07-21T01:10:06;97923.28;;;15.20;90.54
44148;BME280;29810;55.848;37.368;2022-07-21T01:13:07;97925.66;;;15.23;89.94
44148;BME280;29810;55.848;37.368;2022-07-21T01:16:09;97924.00;;;15.22;89.99
44148;BME280;29810;55.848;37.368;2022-07-21T01:19:11;97921.47;;;15.21;89.95
44148;BME280;29810;55.848;37.368;2022-07-21T01:22:13;97926.25;;;15.16;90.08
44148;BME280;29810;55.848;37.368;2022-07-21T01:25:16;97925.72;;;14.88;91.01
44148;BME280;29810;55.848;37.368;2022-07-21T01:28:18;97896.00;;;14.76;91.37
44148;BME280;29810;55.848;37.368;2022-07-21T01:31:19;97921.31;;;15.00;91.24
44148;BME280;29810;55.848;37.368;2022-07-21T01:34:21;97912.25;;;15.04;91.11
44148;BME280;29810;55.848;37.368;2022-07-21T01:37:27;97915.88;;;15.14;90.92
44148;BME280;29810;55.848;37.368;2022-07-21T01:40:29;97922.53;;;15.18;90.96
44148;BME280;29810;55.848;37.368;2022-07-21T01:44:18;97915.00;;;15.02;91.05
44148;BME280;29810;55.848;37.368;2022-07-21T01:47:20;97920.41;;;15.12;91.93
44148;BME280;29810;55.848;37.368;2022-07-21T01:50:24;97924.97;;;15.21;91.44
44148;BME280;29810;55.848;37.368;2022-07-21T01:53:28;97918.97;;;15.08;90.78
44148;BME280;29810;55.848;37.368;2022-07-21T01:56:29;97916.12;;;15.11;91.07
44148;BME280;29810;55.848;37.368;2022-07-21T01:59:31;97925.50;;;15.02;91.48
44148;BME280;29810;55.848;37.368;2022-07-21T02:02:32;97920.13;;;14.93;91.94
44148;BME280;29810;55.848;37.368;2022-07-21T02:05:34;97876.53;;;14.67;92.16
44148;BME280;29810;55.848;37.368;2022-07-21T02:08:36;97909.16;;;14.87;92.28
44148;BME280;29810;55.848;37.368;2022-07-21T02:11:38;97919.94;;;15.07;92.12
44148;BME280;29810;55.848;37.368;2022-07-21T02:14:39;97917.78;;;15.23;91.77
44148;BME280;29810;55.848;37.368;2022-07-21T02:17:41;97911.81;;;15.33;91.21
44148;BME280;29810;55.848;37.368;2022-07-21T02:20:42;97908.84;;;15.37;90.86
44148;BME280;29810;55.848;37.368;2022-07-21T02:23:46;97851.66;;;14.96;90.66
44148;BME280;29810;55.848;37.368;2022-07-21T02:26:47;97913.75;;;15.31;90.68
44148;BME280;29810;55.848;37.368;2022-07-21T02:29:49;97864.06;;;14.82;90.74
44148;BME280;29810;55.848;37.368;2022-07-21T02:32:50;97920.06;;;15.05;91.52
44148;BME280;29810;55.848;37.368;2022-07-21T02:35:52;97913.81;;;14.95;92.18
44148;BME280;29810;55.848;37.368;2022-07-21T02:38:54;97912.47;;;14.89;92.84
44148;BME280;29810;55.848;37.368;2022-07-21T02:41:55;97902.22;;;14.86;93.00
44148;BME280;29810;55.848;37.368;2022-07-21T02:44:57;97907.50;;;14.98;92.94
44148;BME280;29810;55.848;37.368;2022-07-21T02:48:08;97909.75;;;15.02;92.89
44148;BME280;29810;55.848;37.368;2022-07-21T02:51:10;97908.69;;;15.05;93.10
44148;BME280;29810;55.848;37.368;2022-07-21T02:54:11;97905.50;;;15.13;92.86
44148;BME280;29810;55.848;37.368;2022-07-21T02:57:13;97910.63;;;15.26;92.39
44148;BME280;29810;55.848;37.368;2022-07-21T03:00:15;97902.53;;;15.40;92.15
44148;BME280;29810;55.848;37.368;2022-07-21T03:03:17;97911.72;;;15.46;91.86
44148;BME280;29810;55.848;37.368;2022-07-21T03:06:19;97892.25;;;15.14;92.06
44148;BME280;29810;55.848;37.368;2022-07-21T03:09:20;97887.69;;;15.05;92.43
44148;BME280;29810;55.848;37.368;2022-07-21T03:12:22;97908.59;;;15.18;92.56
44148;BME280;29810;55.848;37.368;2022-07-21T03:15:23;97909.44;;;15.18;92.69
44148;BME280;29810;55.848;37.368;2022-07-21T03:18:25;97908.34;;;15.21;92.99
44148;BME280;29810;55.848;37.368;2022-07-21T03:21:26;97913.13;;;15.16;93.54
44148;BME280;29810;55.848;37.368;2022-07-21T03:24:28;97906.72;;;15.20;94.09
44148;BME280;29810;55.848;37.368;2022-07-21T03:27:30;97913.50;;;15.22;93.87
44148;BME280;29810;55.848;37.368;2022-07-21T03:30:33;97908.00;;;15.26;93.79
44148;BME280;29810;55.848;37.368;2022-07-21T03:33:34;97903.22;;;15.08;93.86
44148;BME280;29810;55.848;37.368;2022-07-21T03:36:36;97910.75;;;15.13;94.25
44148;BME280;29810;55.848;37.368;2022-07-21T03:39:38;97915.88;;;15.03;94.89
44148;BME280;29810;55.848;37.368;2022-07-21T03:42:40;97849.59;;;14.65;95.17
44148;BME280;29810;55.848;37.368;2022-07-21T03:45:41;97906.59;;;15.21;94.84
44148;BME280;29810;55.848;37.368;2022-07-21T03:48:43;97902.97;;;15.11;94.90
44148;BME280;29810;55.848;37.368;2022-07-21T03:51:44;97903.25;;;15.31;94.41
44148;BME280;29810;55.848;37.368;2022-07-21T03:54:46;97886.28;;;15.23;94.15
44148;BME280;29810;55.848;37.368;2022-07-21T03:57:51;97891.66;;;15.33;93.86
44148;BME280;29810;55.848;37.368;2022-07-21T04:00:53;97904.19;;;15.52;93.96
44148;BME280;29810;55.848;37.368;2022-07-21T04:03:55;97894.66;;;15.85;92.33
44148;BME280;29810;55.848;37.368;2022-07-21T04:06:56;97901.78;;;15.72;91.55
44148;BME280;29810;55.848;37.368;2022-07-21T04:09:58;97900.47;;;15.55;92.64
44148;BME280;29810;55.848;37.368;2022-07-21T04:13:01;97905.87;;;15.65;92.84
44148;BME280;29810;55.848;37.368;2022-07-21T04:16:03;97908.50;;;15.65;92.54
44148;BME280;29810;55.848;37.368;2022-07-21T04:19:04;97915.75;;;15.50;92.96
44148;BME280;29810;55.848;37.368;2022-07-21T04:22:07;97919.00;;;15.53;92.95
44148;BME280;29810;55.848;37.368;2022-07-21T04:25:08;97914.00;;;15.50;93.54
44148;BME280;29810;55.848;37.368;2022-07-21T04:28:12;97903.97;;;15.44;93.16
44148;BME280;29810;55.848;37.368;2022-07-21T04:31:13;97923.41;;;15.42;94.06
44148;BME280;29810;55.848;37.368;2022-07-21T04:34:15;97921.38;;;15.34;94.26
44148;BME280;29810;55.848;37.368;2022-07-21T04:37:16;97933.22;;;15.39;93.51
44148;BME280;29810;55.848;37.368;2022-07-21T04:40:18;97918.03;;;15.77;91.30
44148;BME280;29810;55.848;37.368;2022-07-21T04:43:19;97902.28;;;15.88;89.05
44148;BME280;29810;55.848;37.368;2022-07-21T04:46:21;97918.94;;;16.21;88.42
44148;BME280;29810;55.848;37.368;2022-07-21T04:49:22;97920.44;;;16.68;86.51
44148;BME280;29810;55.848;37.368;2022-07-21T04:52:24;97913.66;;;17.08;83.48
44148;BME280;29810;55.848;37.368;2022-07-21T04:55:26;97919.63;;;17.31;81.30
44148;BME280;29810;55.848;37.368;2022-07-21T04:58:27;97909.62;;;17.03;81.63
44148;BME280;29810;55.848;37.368;2022-07-21T05:01:29;97911.97;;;16.85;82.90
44148;BME280;29810;55.848;37.368;2022-07-21T05:04:31;97916.66;;;16.82;83.22
44148;BME280;29810;55.848;37.368;2022-07-21T05:07:32;97906.56;;;16.98;82.70
44148;BME280;29810;55.848;37.368;2022-07-21T05:10:34;97914.84;;;16.94;81.81
44148;BME280;29810;55.848;37.368;2022-07-21T05:13:36;97917.25;;;16.85;82.04
44148;BME280;29810;55.848;37.368;2022-07-21T05:16:37;97908.53;;;17.06;81.32
44148;BME280;29810;55.848;37.368;2022-07-21T05:19:39;97902.50;;;17.15;80.77
44148;BME280;29810;55.848;37.368;2022-07-21T05:22:40;97896.00;;;17.50;79.29
44148;BME280;29810;55.848;37.368;2022-07-21T05:25:42;97879.47;;;17.38;78.59
44148;BME280;29810;55.848;37.368;2022-07-21T05:28:44;97884.00;;;17.27;78.03
44148;BME280;29810;55.848;37.368;2022-07-21T05:31:45;97903.41;;;17.04;76.69
44148;BME280;29810;55.848;37.368;2022-07-21T05:34:47;97914.59;;;16.97;77.57
44148;BME280;29810;55.848;37.368;2022-07-21T05:37:48;97914.38;;;16.88;74.64
44148;BME280;29810;55.848;37.368;2022-07-21T05:40:50;97911.16;;;16.85;76.37
44148;BME280;29810;55.848;37.368;2022-07-21T05:43:51;97917.94;;;16.66;77.46
44148;BME280;29810;55.848;37.368;2022-07-21T05:46:53;97918.28;;;16.73;77.70
44148;BME280;29810;55.848;37.368;2022-07-21T05:49:54;97920.78;;;16.75;77.55
44148;BME280;29810;55.848;37.368;2022-07-21T05:52:56;97926.03;;;16.75;77.69
44148;BME280;29810;55.848;37.368;2022-07-21T05:55:57;97908.88;;;16.92;77.12
44148;BME280;29810;55.848;37.368;2022-07-21T05:58:59;97934.06;;;17.36;77.87
44148;BME280;29810;55.848;37.368;2022-07-21T06:02:00;97929.78;;;17.14;77.28
44148;BME280;29810;55.848;37.368;2022-07-21T06:05:02;97931.78;;;16.47;78.41
44148;BME280;29810;55.848;37.368;2022-07-21T06:08:04;97933.13;;;16.30;80.34
44148;BME280;29810;55.848;37.368;2022-07-21T06:11:10;97945.81;;;16.36;79.39
44148;BME280;29810;55.848;37.368;2022-07-21T06:14:12;97935.87;;;16.40;80.13
44148;BME280;29810;55.848;37.368;2022-07-21T06:17:14;97943.34;;;16.56;79.54
44148;BME280;29810;55.848;37.368;2022-07-21T06:20:15;97940.00;;;16.54;79.42
44148;BME280;29810;55.848;37.368;2022-07-21T06:23:17;97959.97;;;17.10;76.15
44148;BME280;29810;55.848;37.368;2022-07-21T06:26:19;97946.88;;;17.72;73.82
44148;BME280;29810;55.848;37.368;2022-07-21T06:29:22;97943.59;;;17.59;73.80
44148;BME280;29810;55.848;37.368;2022-07-21T06:32:23;97941.47;;;17.21;75.57
44148;BME280;29810;55.848;37.368;2022-07-21T06:35:25;97934.44;;;17.53;74.94
44148;BME280;29810;55.848;37.368;2022-07-21T06:38:26;97942.59;;;18.41;71.73
44148;BME280;29810;55.848;37.368;2022-07-21T06:41:28;97941.75;;;18.31;69.99
44148;BME280;29810;55.848;37.368;2022-07-21T06:44:29;97944.22;;;17.72;72.63
44148;BME280;29810;55.848;37.368;2022-07-21T06:47:31;97952.19;;;17.92;71.33
44148;BME280;29810;55.848;37.368;2022-07-21T06:50:34;97943.34;;;17.93;71.87
44148;BME280;29810;55.848;37.368;2022-07-21T06:53:36;97959.25;;;17.50;74.09
44148;BME280;29810;55.848;37.368;2022-07-21T06:56:38;97955.84;;;17.38;74.50
44148;BME280;29810;55.848;37.368;2022-07-21T06:59:39;97905.81;;;16.75;74.70
44148;BME280;29810;55.848;37.368;2022-07-21T07:02:41;97973.09;;;17.21;75.73
44148;BME280;29810;55.848;37.368;2022-07-21T07:05:46;97957.31;;;17.52;74.86
44148;BME280;29810;55.848;37.368;2022-07-21T07:08:48;97978.22;;;17.75;74.12
44148;BME280;29810;55.848;37.368;2022-07-21T07:11:50;97990.06;;;17.60;72.62
44148;BME280;29810;55.848;37.368;2022-07-21T07:14:56;97989.44;;;17.77;71.53
44148;BME280;29810;55.848;37.368;2022-07-21T07:17:58;97987.50;;;18.00;69.71
44148;BME280;29810;55.848;37.368;2022-07-21T07:20:59;97979.81;;;18.28;69.01
44148;BME280;29810;55.848;37.368;2022-07-21T07:24:01;97982.47;;;18.38;68.62
44148;BME280;29810;55.848;37.368;2022-07-21T07:27:03;98020.25;;;18.48;67.65
44148;BME280;29810;55.848;37.368;2022-07-21T07:30:07;97991.47;;;18.26;68.87
44148;BME280;29810;55.848;37.368;2022-07-21T07:33:09;98009.28;;;17.71;71.96
44148;BME280;29810;55.848;37.368;2022-07-21T07:36:11;98007.62;;;16.75;80.16
44148;BME280;29810;55.848;37.368;2022-07-21T07:39:14;98007.56;;;16.53;82.56
44148;BME280;29810;55.848;37.368;2022-07-21T07:42:17;98017.81;;;16.68;82.81
44148;BME280;29810;55.848;37.368;2022-07-21T07:45:18;98022.59;;;16.63;83.15
44148;BME280;29810;55.848;37.368;2022-07-21T07:48:20;98040.09;;;16.41;83.59
44148;BME280;29810;55.848;37.368;2022-07-21T07:51:21;98037.50;;;16.07;85.27
44148;BME280;29810;55.848;37.368;2022-07-21T07:54:23;98051.13;;;16.23;85.85
44148;BME280;29810;55.848;37.368;2022-07-21T07:57:25;98063.22;;;16.70;84.20
44148;BME280;29810;55.848;37.368;2022-07-21T08:00:26;98066.09;;;16.78;85.17
44148;BME280;29810;55.848;37.368;2022-07-21T08:03:28;98074.56;;;16.15;89.31
44148;BME280;29810;55.848;37.368;2022-07-21T08:06:30;98072.87;;;16.26;89.89
44148;BME280;29810;55.848;37.368;2022-07-21T08:09:31;98054.06;;;16.53;90.24
44148;BME280;29810;55.848;37.368;2022-07-21T08:12:33;98054.56;;;16.47;88.46
44148;BME280;29810;55.848;37.368;2022-07-21T08:15:35;98068.97;;;16.75;87.34
44148;BME280;29810;55.848;37.368;2022-07-21T08:18:36;98084.41;;;16.80;86.66
44148;BME280;29810;55.848;37.368;2022-07-21T08:21:38;98072.91;;;16.81;86.90
44148;BME280;29810;55.848;37.368;2022-07-21T08:24:40;98068.78;;;17.11;87.02
44148;BME280;29810;55.848;37.368;2022-07-21T08:27:41;98082.31;;;17.38;82.66
44148;BME280;29810;55.848;37.368;2022-07-21T08:30:43;98078.88;;;17.69;81.93
44148;BME280;29810;55.848;37.368;2022-07-21T08:33:45;98083.38;;;17.99;79.94
44148;BME280;29810;55.848;37.368;2022-07-21T08:36:47;98075.81;;;18.06;79.04
44148;BME280;29810;55.848;37.368;2022-07-21T08:39:51;98068.94;;;18.25;78.36
44148;BME280;29810;55.848;37.368;2022-07-21T08:42:53;98084.03;;;18.53;76.28
44148;BME280;29810;55.848;37.368;2022-07-21T08:45:55;98107.88;;;18.42;73.65
44148;BME280;29810;55.848;37.368;2022-07-21T08:48:57;98103.47;;;18.52;72.04
44148;BME280;29810;55.848;37.368;2022-07-21T08:52:01;98103.25;;;18.85;72.02
44148;BME280;29810;55.848;37.368;2022-07-21T08:55:03;98102.75;;;19.01;71.23
44148;BME280;29810;55.848;37.368;2022-07-21T08:58:07;98081.06;;;19.46;70.51
44148;BME280;29810;55.848;37.368;2022-07-21T09:01:11;98108.00;;;19.99;66.59
44148;BME280;29810;55.848;37.368;2022-07-21T09:07:22;98122.22;;;19.88;67.63
44148;BME280;29810;55.848;37.368;2022-07-21T09:10:27;98125.87;;;19.38;68.06
44148;BME280;29810;55.848;37.368;2022-07-21T09:13:29;98131.28;;;18.66;70.14
44148;BME280;29810;55.848;37.368;2022-07-21T09:16:33;98145.41;;;18.56;69.53
44148;BME280;29810;55.848;37.368;2022-07-21T09:19:37;98147.03;;;18.87;68.32
44148;BME280;29810;55.848;37.368;2022-07-21T09:23:10;98151.59;;;19.36;67.30
44148;BME280;29810;55.848;37.368;2022-07-21T09:26:12;98136.13;;;19.80;64.70
44148;BME280;29810;55.848;37.368;2022-07-21T09:29:14;98139.88;;;19.78;62.55
44148;BME280;29810;55.848;37.368;2022-07-21T09:35:20;98145.84;;;19.99;60.72
44148;BME280;29810;55.848;37.368;2022-07-21T09:38:22;98151.66;;;20.60;58.41
44148;BME280;29810;55.848;37.368;2022-07-21T09:41:25;98162.22;;;20.98;57.33
44148;BME280;29810;55.848;37.368;2022-07-21T09:44:30;98172.72;;;20.05;60.59
44148;BME280;29810;55.848;37.368;2022-07-21T09:47:33;98162.31;;;19.54;63.44
44148;BME280;29810;55.848;37.368;2022-07-21T09:50:35;98170.22;;;19.25;64.88
44148;BME280;29810;55.848;37.368;2022-07-21T09:53:52;98173.03;;;18.82;65.56
44148;BME280;29810;55.848;37.368;2022-07-21T09:56:54;98182.94;;;18.59;66.53
44148;BME280;29810;55.848;37.368;2022-07-21T09:59:57;98181.66;;;18.84;65.90
44148;BME280;29810;55.848;37.368;2022-07-21T10:03:01;98189.25;;;19.09;63.60
44148;BME280;29810;55.848;37.368;2022-07-21T10:06:03;98188.03;;;19.42;62.08
44148;BME280;29810;55.848;37.368;2022-07-21T10:09:09;98180.66;;;19.75;60.90
44148;BME280;29810;55.848;37.368;2022-07-21T10:12:11;98190.28;;;19.86;61.12
44148;BME280;29810;55.848;37.368;2022-07-21T10:15:13;98184.12;;;19.76;59.39
44148;BME280;29810;55.848;37.368;2022-07-21T10:18:15;98185.97;;;19.75;58.97
44148;BME280;29810;55.848;37.368;2022-07-21T10:21:51;98202.94;;;19.92;56.96
44148;BME280;29810;55.848;37.368;2022-07-21T10:24:54;98204.13;;;20.37;55.15
44148;BME280;29810;55.848;37.368;2022-07-21T10:28:18;98178.50;;;20.38;53.89
44148;BME280;29810;55.848;37.368;2022-07-21T10:31:24;98213.38;;;20.61;53.32
44148;BME280;29810;55.848;37.368;2022-07-21T10:34:34;98216.78;;;20.43;53.75
44148;BME280;29810;55.848;37.368;2022-07-21T10:40:43;98209.91;;;20.70;54.11
44148;BME280;29810;55.848;37.368;2022-07-21T10:43:45;98192.13;;;20.80;51.97
44148;BME280;29810;55.848;37.368;2022-07-21T10:47:16;98209.37;;;21.40;50.34
44148;BME280;29810;55.848;37.368;2022-07-21T10:53:32;98235.50;;;21.53;50.87
44148;BME280;29810;55.848;37.368;2022-07-21T10:56:34;98222.38;;;20.88;52.78
44148;BME280;29810;55.848;37.368;2022-07-21T11:06:23;98231.94;;;21.72;48.46
44148;BME280;29810;55.848;37.368;2022-07-21T11:09:26;98230.16;;;21.99;48.80
44148;BME280;29810;55.848;37.368;2022-07-21T11:12:57;98159.84;;;21.41;50.20
44148;BME280;29810;55.848;37.368;2022-07-21T11:16:00;98231.75;;;21.56;49.36
44148;BME280;29810;55.848;37.368;2022-07-21T11:19:02;98232.44;;;21.94;49.55
44148;BME280;29810;55.848;37.368;2022-07-21T11:25:11;98251.72;;;21.04;54.13
44148;BME280;29810;55.848;37.368;2022-07-21T11:28:18;98306.94;;;20.12;58.24
44148;BME280;29810;55.848;37.368;2022-07-21T11:31:20;98322.72;;;17.52;75.72
44148;BME280;29810;55.848;37.368;2022-07-21T11:34:24;98307.03;;;16.71;84.08
44148;BME280;29810;55.848;37.368;2022-07-21T11:40:37;98305.19;;;16.49;87.04
44148;BME280;29810;55.848;37.368;2022-07-21T11:43:44;98294.09;;;16.79;84.62
44148;BME280;29810;55.848;37.368;2022-07-21T11:46:49;98299.88;;;17.30;82.50
44148;BME280;29810;55.848;37.368;2022-07-21T11:49:53;98302.72;;;17.49;77.96
44148;BME280;29810;55.848;37.368;2022-07-21T11:52:56;98320.84;;;17.98;77.37
44148;BME280;29810;55.848;37.368;2022-07-21T11:55:57;98274.59;;;18.36;72.53
44148;BME280;29810;55.848;37.368;2022-07-21T11:59:09;98315.28;;;18.97;70.68
44148;BME280;29810;55.848;37.368;2022-07-21T12:02:20;98312.91;;;18.94;67.24
44148;BME280;29810;55.848;37.368;2022-07-21T12:05:22;98330.75;;;18.59;71.28
44148;BME280;29810;55.848;37.368;2022-07-21T12:08:25;98344.56;;;18.73;67.78
44148;BME280;29810;55.848;37.368;2022-07-21T12:11:35;98325.78;;;19.08;65.31
44148;BME280;29810;55.848;37.368;2022-07-21T12:14:47;98333.06;;;19.26;63.41
44148;BME280;29810;55.848;37.368;2022-07-21T12:17:51;98344.22;;;19.39;63.30
44148;BME280;29810;55.848;37.368;2022-07-21T12:21:04;98358.44;;;19.48;60.83
44148;BME280;29810;55.848;37.368;2022-07-21T12:24:07;98319.28;;;19.73;60.00
44148;BME280;29810;55.848;37.368;2022-07-21T12:27:11;98320.31;;;20.01;59.18
44148;BME280;29810;55.848;37.368;2022-07-21T12:30:33;98327.84;;;20.15;58.13
44148;BME280;29810;55.848;37.368;2022-07-21T12:33:35;98320.28;;;19.91;57.76
44148;BME280;29810;55.848;37.368;2022-07-21T12:36:37;98343.19;;;19.61;60.14
44148;BME280;29810;55.848;37.368;2022-07-21T12:39:39;98326.19;;;19.54;60.25
44148;BME280;29810;55.848;37.368;2022-07-21T12:43:14;98345.97;;;19.60;60.73
44148;BME280;29810;55.848;37.368;2022-07-21T12:46:16;98332.34;;;19.64;61.65
44148;BME280;29810;55.848;37.368;2022-07-21T12:49:21;98343.97;;;19.93;63.20
44148;BME280;29810;55.848;37.368;2022-07-21T12:52:24;98336.25;;;19.70;64.37
44148;BME280;29810;55.848;37.368;2022-07-21T12:55:26;98374.28;;;19.38;64.39
44148;BME280;29810;55.848;37.368;2022-07-21T12:58:28;98365.47;;;18.97;65.65
44148;BME280;29810;55.848;37.368;2022-07-21T13:01:31;98352.63;;;18.92;65.56
44148;BME280;29810;55.848;37.368;2022-07-21T13:04:33;98364.25;;;19.32;66.37
44148;BME280;29810;55.848;37.368;2022-07-21T13:07:35;98343.75;;;19.24;64.02
44148;BME280;29810;55.848;37.368;2022-07-21T13:10:37;98362.47;;;19.42;64.33
44148;BME280;29810;55.848;37.368;2022-07-21T13:13:39;98365.72;;;19.65;63.08
44148;BME280;29810;55.848;37.368;2022-07-21T13:16:40;98336.19;;;19.50;63.64
44148;BME280;29810;55.848;37.368;2022-07-21T13:19:42;98358.78;;;19.74;60.24
44148;BME280;29810;55.848;37.368;2022-07-21T13:22:44;98351.34;;;19.99;60.86
44148;BME280;29810;55.848;37.368;2022-07-21T13:25:46;98361.13;;;20.28;62.51
44148;BME280;29810;55.848;37.368;2022-07-21T13:28:49;98368.91;;;20.49;59.36
44148;BME280;29810;55.848;37.368;2022-07-21T13:31:51;98371.81;;;20.56;59.19
44148;BME280;29810;55.848;37.368;2022-07-21T13:34:52;98363.06;;;20.65;59.01
44148;BME280;29810;55.848;37.368;2022-07-21T13:37:55;98348.84;;;20.46;57.73
44148;BME280;29810;55.848;37.368;2022-07-21T13:40:57;98367.38;;;20.27;57.49
44148;BME280;29810;55.848;37.368;2022-07-21T13:43:59;98380.63;;;20.17;57.54
44148;BME280;29810;55.848;37.368;2022-07-21T13:47:02;98354.97;;;19.98;58.59
44148;BME280;29810;55.848;37.368;2022-07-21T13:50:04;98391.47;;;20.04;58.54
44148;BME280;29810;55.848;37.368;2022-07-21T13:53:06;98375.03;;;20.10;58.48
44148;BME280;29810;55.848;37.368;2022-07-21T13:56:08;98364.44;;;20.00;58.75
44148;BME280;29810;55.848;37.368;2022-07-21T13:59:09;98344.97;;;20.11;59.86
44148;BME280;29810;55.848;37.368;2022-07-21T14:02:11;98353.03;;;20.39;57.90
44148;BME280;29810;55.848;37.368;2022-07-21T14:05:14;98403.19;;;20.50;56.59
44148;BME280;29810;55.848;37.368;2022-07-21T14:08:15;98382.41;;;20.56;54.88
44148;BME280;29810;55.848;37.368;2022-07-21T14:11:17;98349.94;;;20.63;55.39
44148;BME280;29810;55.848;37.368;2022-07-21T14:14:19;98363.19;;;20.63;55.89
44148;BME280;29810;55.848;37.368;2022-07-21T14:17:24;98373.25;;;20.70;57.63
44148;BME280;29810;55.848;37.368;2022-07-21T14:20:25;98361.91;;;20.97;57.93
44148;BME280;29810;55.848;37.368;2022-07-21T14:23:27;98363.34;;;21.29;57.03
44148;BME280;29810;55.848;37.368;2022-07-21T14:26:29;98367.12;;;21.16;56.05
44148;BME280;29810;55.848;37.368;2022-07-21T14:29:30;98381.41;;;21.06;55.60
44148;BME280;29810;55.848;37.368;2022-07-21T14:32:32;98373.25;;;21.17;57.48
44148;BME280;29810;55.848;37.368;2022-07-21T14:35:34;98386.31;;;21.38;56.51
44148;BME280;29810;55.848;37.368;2022-07-21T14:38:35;98387.47;;;21.26;57.00
44148;BME280;29810;55.848;37.368;2022-07-21T14:41:37;98377.78;;;20.97;55.62
44148;BME280;29810;55.848;37.368;2022-07-21T14:44:39;98396.22;;;20.89;55.07
44148;BME280;29810;55.848;37.368;2022-07-21T14:47:40;98366.41;;;21.24;54.79
44148;BME280;29810;55.848;37.368;2022-07-21T14:50:42;98369.22;;;21.50;53.84
44148;BME280;29810;55.848;37.368;2022-07-21T14:53:44;98393.16;;;21.41;52.61
44148;BME280;29810;55.848;37.368;2022-07-21T14:56:45;98388.38;;;21.44;52.03
44148;BME280;29810;55.848;37.368;2022-07-21T14:59:47;98362.09;;;21.23;52.47
44148;BME280;29810;55.848;37.368;2022-07-21T15:02:48;98394.47;;;21.17;52.46
44148;BME280;29810;55.848;37.368;2022-07-21T15:05:50;98433.69;;;21.04;52.28
44148;BME280;29810;55.848;37.368;2022-07-21T15:08:51;98410.44;;;20.88;52.44
44148;BME280;29810;55.848;37.368;2022-07-21T15:11:53;98398.84;;;20.59;53.11
44148;BME280;29810;55.848;37.368;2022-07-21T15:14:55;98415.72;;;20.68;53.23
44148;BME280;29810;55.848;37.368;2022-07-21T15:17:56;98416.53;;;20.68;53.48
44148;BME280;29810;55.848;37.368;2022-07-21T15:20:58;98398.47;;;20.44;53.93
44148;BME280;29810;55.848;37.368;2022-07-21T15:23:59;98365.56;;;20.37;53.23
44148;BME280;29810;55.848;37.368;2022-07-21T15:27:01;98416.84;;;20.65;53.59
44148;BME280;29810;55.848;37.368;2022-07-21T15:30:05;98416.84;;;20.36;54.29
44148;BME280;29810;55.848;37.368;2022-07-21T15:33:07;98417.66;;;20.46;54.05
44148;BME280;29810;55.848;37.368;2022-07-21T15:36:09;98438.28;;;20.33;54.10
44148;BME280;29810;55.848;37.368;2022-07-21T15:39:11;98442.19;;;20.39;53.99
44148;BME280;29810;55.848;37.368;2022-07-21T15:42:13;98465.59;;;20.43;54.22
44148;BME280;29810;55.848;37.368;2022-07-21T15:45:15;98412.38;;;20.27;53.16
44148;BME280;29810;55.848;37.368;2022-07-21T15:48:17;98429.25;;;20.55;53.70
44148;BME280;29810;55.848;37.368;2022-07-21T15:51:18;98413.94;;;20.59;53.08
44148;BME280;29810;55.848;37.368;2022-07-21T15:54:20;98429.38;;;20.63;53.03
44148;BME280;29810;55.848;37.368;2022-07-21T15:57:22;98431.34;;;20.61;52.66
44148;BME280;29810;55.848;37.368;2022-07-21T16:00:23;98420.19;;;20.48;52.68
44148;BME280;29810;55.848;37.368;2022-07-21T16:03:25;98443.75;;;20.51;52.05
44148;BME280;29810;55.848;37.368;2022-07-21T16:06:27;98433.13;;;20.41;51.92
44148;BME280;29810;55.848;37.368;2022-07-21T16:09:31;98464.50;;;20.56;51.91
44148;BME280;29810;55.848;37.368;2022-07-21T16:12:33;98441.06;;;20.41;52.25
44148;BME280;29810;55.848;37.368;2022-07-21T16:15:35;98459.34;;;20.44;52.79
44148;BME280;29810;55.848;37.368;2022-07-21T16:18:36;98459.59;;;20.41;52.94
44148;BME280;29810;55.848;37.368;2022-07-21T16:21:38;98480.91;;;20.40;53.41